Time;durP1;ratioP1;P1;durP2;ratioP2;P2;SDS_P1;SDS_P2;PMS_P1;PMS_P2;Temp;Humidity;BMP_temperature;BMP_pressure;BME280_temperature;BME280_humidity;BME280_pressure;Samples;Min_cycle;Max_cycle;Signal;HPM_P1;HPM_P2
2024/01/05 00:00:34;;;;;;;5.30;2.90;;;13.90;79.20;;;;;;4594753;19;20006;-71
2024/01/05 00:02:28;;;;;;;8.80;4.70;;;13.90;78.70;;;;;;4593337;19;20013;-71
2024/01/05 00:04:04;;;;;;;5.50;3.05;;;13.80;78.10;;;;;;4593486;19;20073;-71
2024/01/05 00:05:41;;;;;;;7.53;4.20;;;13.80;78.10;;;;;;4593270;19;20015;-71
2024/01/05 00:07:15;;;;;;;5.35;2.92;;;13.80;78.20;;;;;;4594428;19;20041;-71
2024/01/05 00:08:51;;;;;;;3.45;2.08;;;13.80;78.30;;;;;;4595021;19;20504;-71
2024/01/05 00:10:25;;;;;;;4.67;2.70;;;13.80;78.40;;;;;;4594639;19;20021;-71
2024/01/05 00:11:59;;;;;;;4.25;2.40;;;13.80;78.20;;;;;;4594455;19;20436;-71
2024/01/05 00:13:35;;;;;;;7.43;4.80;;;13.80;78.00;;;;;;4594670;19;20003;-71
2024/01/05 00:15:12;;;;;;;7.35;5.47;;;13.80;78.40;;;;;;4594577;19;20013;-71
2024/01/05 00:16:46;;;;;;;5.03;2.95;;;13.80;78.80;;;;;;4593270;19;20066;-71
2024/01/05 00:18:22;;;;;;;4.60;2.55;;;13.80;78.40;;;;;;4594060;19;19998;-71
2024/01/05 00:19:56;;;;;;;4.72;2.70;;;13.80;78.30;;;;;;4594423;19;20430;-71
2024/01/05 00:21:30;;;;;;;5.03;2.80;;;13.80;78.70;;;;;;4594429;19;20311;-71
2024/01/05 00:23:06;;;;;;;5.30;3.38;;;13.80;78.60;;;;;;4593120;19;20410;-71
2024/01/05 00:24:40;;;;;;;4.35;2.60;;;13.80;78.40;;;;;;4594415;19;20429;-71
2024/01/05 00:26:14;;;;;;;4.22;2.63;;;13.80;78.90;;;;;;4594344;19;20306;-71
2024/01/05 00:27:52;;;;;;;4.13;2.03;;;13.80;78.90;;;;;;4595133;19;20098;-71
2024/01/05 00:29:27;;;;;;;4.72;2.20;;;13.80;78.80;;;;;;4594384;19;19999;-71
2024/01/05 00:31:01;;;;;;;4.22;2.88;;;13.80;79.50;;;;;;4594259;19;20023;-71
2024/01/05 00:32:37;;;;;;;5.07;3.80;;;13.80;79.60;;;;;;4593563;19;20010;-71
2024/01/05 00:34:11;;;;;;;6.80;4.40;;;13.80;79.70;;;;;;4594148;19;20030;-71
2024/01/05 00:35:45;;;;;;;17.65;12.73;;;13.80;79.80;;;;;;4594170;19;20003;-71
2024/01/05 00:37:21;;;;;;;24.17;16.48;;;13.80;80.40;;;;;;4594189;19;20007;-71
2024/01/05 00:38:54;;;;;;;14.68;9.40;;;13.80;80.70;;;;;;4594021;19;20002;-71
2024/01/05 00:40:29;;;;;;;9.73;6.18;;;13.80;80.80;;;;;;4594071;19;20002;-71
2024/01/05 00:42:05;;;;;;;18.55;12.32;;;13.80;80.80;;;;;;4593714;19;20295;-71
2024/01/05 00:43:40;;;;;;;9.60;6.22;;;13.80;81.00;;;;;;4593965;19;19999;-71
2024/01/05 00:45:15;;;;;;;10.35;6.65;;;13.80;80.60;;;;;;4594051;19;20002;-71
2024/01/05 00:46:50;;;;;;;23.13;13.90;;;13.80;80.20;;;;;;4594189;19;20019;-71
2024/01/05 00:48:26;;;;;;;23.50;15.45;;;13.80;80.20;;;;;;4594330;19;19998;-71
2024/01/05 00:50:00;;;;;;;16.15;11.43;;;13.80;80.40;;;;;;4594038;19;20307;-71
2024/01/05 00:51:35;;;;;;;13.70;8.82;;;13.80;80.70;;;;;;4594087;19;20078;-71
2024/01/05 00:53:09;;;;;;;17.75;11.65;;;13.80;80.60;;;;;;4592834;19;20032;-71
2024/01/05 00:54:44;;;;;;;10.27;6.72;;;13.80;80.30;;;;;;4593926;19;20030;-71
2024/01/05 00:56:20;;;;;;;20.00;13.43;;;13.80;80.60;;;;;;4594426;19;20011;-71
2024/01/05 00:57:54;;;;;;;32.70;22.63;;;13.80;80.90;;;;;;4593872;19;19999;-71
2024/01/05 00:59:29;;;;;;;11.85;8.43;;;13.80;80.80;;;;;;4594076;19;20004;-71
2024/01/05 01:17:40;;;;;;;5.50;3.22;;;13.80;80.80;;;;;;4591317;19;20017;-72
2024/01/05 01:19:15;;;;;;;9.85;7.03;;;13.80;80.70;;;;;;4593633;19;20003;-72
2024/01/05 01:20:49;;;;;;;12.27;8.60;;;13.80;80.70;;;;;;4593720;19;20310;-71
2024/01/05 01:22:23;;;;;;;4.78;2.53;;;13.80;80.80;;;;;;4592925;19;19999;-72
2024/01/05 01:23:58;;;;;;;3.03;1.77;;;13.80;80.50;;;;;;4593416;19;19994;-72
2024/01/05 01:25:32;;;;;;;14.50;11.00;;;13.80;80.10;;;;;;4593583;19;19998;-72
2024/01/05 01:27:06;;;;;;;9.47;6.97;;;13.80;80.60;;;;;;4592424;19;20042;-71
2024/01/05 01:28:41;;;;;;;14.10;9.93;;;13.80;80.90;;;;;;4592611;19;20002;-72
2024/01/05 01:30:16;;;;;;;5.25;3.08;;;13.80;80.70;;;;;;4592155;19;20007;-72
2024/01/05 01:31:50;;;;;;;4.85;2.72;;;13.80;80.90;;;;;;4592789;19;20003;-72
2024/01/05 01:33:25;;;;;;;15.40;10.37;;;13.80;80.90;;;;;;4593231;19;19998;-72
2024/01/05 01:35:00;;;;;;;14.98;10.57;;;13.70;80.90;;;;;;4593083;19;20005;-72
2024/01/05 01:36:35;;;;;;;14.20;10.40;;;13.80;81.20;;;;;;4592884;19;20013;-72
2024/01/05 01:38:10;;;;;;;9.27;6.30;;;13.80;81.30;;;;;;4591813;19;20069;-72
2024/01/05 01:39:44;;;;;;;10.70;7.15;;;13.80;81.20;;;;;;4592943;19;20015;-72
2024/01/05 01:41:18;;;;;;;7.28;4.50;;;13.70;81.30;;;;;;4593236;19;20006;-72
2024/01/05 01:42:55;;;;;;;5.40;3.03;;;13.80;81.20;;;;;;4590852;19;20022;-72
2024/01/05 01:44:30;;;;;;;11.82;7.60;;;13.70;81.10;;;;;;4592550;19;20006;-72
2024/01/05 01:46:04;;;;;;;6.63;4.00;;;13.70;81.20;;;;;;4591640;19;20014;-72
2024/01/05 01:47:40;;;;;;;7.30;3.90;;;13.70;81.50;;;;;;4592611;19;20006;-71
2024/01/05 01:49:14;;;;;;;5.80;3.60;;;13.70;81.50;;;;;;4593101;19;20482;-72
2024/01/05 01:50:48;;;;;;;7.93;5.15;;;13.70;81.50;;;;;;4592699;19;20011;-72
2024/01/05 01:52:24;;;;;;;5.25;3.58;;;13.80;81.70;;;;;;4591403;19;20017;-71
2024/01/05 01:53:59;;;;;;;4.72;2.97;;;13.80;82.20;;;;;;4592288;19;20034;-72
2024/01/05 01:55:32;;;;;;;10.65;6.55;;;13.70;81.90;;;;;;4591337;19;20001;-72
2024/01/05 01:57:08;;;;;;;8.70;5.60;;;13.70;81.70;;;;;;4590600;19;20006;-72
2024/01/05 01:58:42;;;;;;;11.33;8.27;;;13.70;81.90;;;;;;4592541;19;20034;-72
2024/01/05 02:00:16;;;;;;;6.80;4.77;;;13.70;82.00;;;;;;4592832;19;20003;-72
2024/01/05 02:01:52;;;;;;;8.60;6.33;;;13.70;82.20;;;;;;4592680;19;20002;-72
2024/01/05 02:03:26;;;;;;;5.30;3.23;;;13.70;82.00;;;;;;4590085;19;20009;-72
2024/01/05 02:05:01;;;;;;;8.20;5.73;;;13.70;81.80;;;;;;4592215;19;20322;-72
2024/01/05 02:06:36;;;;;;;9.52;6.60;;;13.70;81.60;;;;;;4592255;19;20023;-72
2024/01/05 02:08:10;;;;;;;10.53;7.63;;;13.70;81.90;;;;;;4592455;19;20003;-72
2024/01/05 02:09:44;;;;;;;8.80;6.87;;;13.70;82.00;;;;;;4592635;19;20003;-72
2024/01/05 02:11:19;;;;;;;10.35;7.75;;;13.70;81.90;;;;;;4591150;19;20002;-72
2024/01/05 02:12:53;;;;;;;11.32;7.05;;;13.70;81.80;;;;;;4591977;19;20099;-72
2024/01/05 02:14:27;;;;;;;6.30;3.90;;;13.70;82.30;;;;;;4592629;19;20007;-72
2024/01/05 02:16:02;;;;;;;6.53;4.00;;;13.80;81.70;;;;;;4592784;19;20006;-72
2024/01/05 02:17:36;;;;;;;4.70;2.90;;;13.70;81.40;;;;;;4589640;19;20025;-72
2024/01/05 02:19:11;;;;;;;8.80;5.43;;;13.70;81.60;;;;;;4592150;19;19999;-72
2024/01/05 02:20:47;;;;;;;4.57;2.45;;;13.70;81.40;;;;;;4592566;19;20418;-72
2024/01/05 02:22:21;;;;;;;5.13;3.80;;;13.70;81.40;;;;;;4592117;19;20433;-72
2024/01/05 02:23:55;;;;;;;4.00;2.87;;;13.70;81.50;;;;;;4590864;19;20009;-72
2024/01/05 02:25:30;;;;;;;4.95;4.10;;;13.70;81.80;;;;;;4590802;19;20233;-72
2024/01/05 02:27:05;;;;;;;5.45;4.13;;;13.70;81.90;;;;;;4591034;19;20006;-72
2024/01/05 02:28:40;;;;;;;4.25;2.45;;;13.70;81.80;;;;;;4592110;19;20332;-72
2024/01/05 02:30:21;;;;;;;5.03;3.73;;;13.70;81.80;;;;;;4592162;19;20426;-72
2024/01/05 02:31:55;;;;;;;3.50;2.53;;;13.70;81.90;;;;;;4592024;19;19999;-72
2024/01/05 02:33:30;;;;;;;5.33;3.33;;;13.70;82.10;;;;;;4592008;19;20303;-72
2024/01/05 02:35:06;;;;;;;3.47;2.60;;;13.70;82.30;;;;;;4592065;19;20002;-72
2024/01/05 02:36:41;;;;;;;5.20;2.90;;;13.70;82.30;;;;;;4591499;19;20070;-72
2024/01/05 02:38:15;;;;;;;5.43;3.33;;;13.70;82.20;;;;;;4591942;19;20010;-72
2024/01/05 02:39:51;;;;;;;5.07;3.80;;;13.70;82.80;;;;;;4591993;19;20017;-72
2024/01/05 02:41:25;;;;;;;5.25;3.22;;;13.70;82.40;;;;;;4596082;19;19999;-72
2024/01/05 02:43:00;;;;;;;5.75;3.53;;;13.70;82.40;;;;;;4595658;19;20003;-72
2024/01/05 02:44:37;;;;;;;4.30;2.40;;;13.70;82.20;;;;;;4596954;19;20482;-72
2024/01/05 02:46:12;;;;;;;6.67;4.20;;;13.70;82.30;;;;;;4596425;19;20002;-72
2024/01/05 02:47:49;;;;;;;7.00;4.67;;;13.70;82.20;;;;;;4596543;19;20005;-72
2024/01/05 02:49:24;;;;;;;6.13;3.47;;;13.70;82.40;;;;;;4595562;19;20454;-72
2024/01/05 02:50:59;;;;;;;5.60;3.50;;;13.70;82.50;;;;;;4596125;19;20009;-72
2024/01/05 02:52:33;;;;;;;5.63;3.53;;;13.70;82.40;;;;;;4596484;19;20003;-72
2024/01/05 02:54:08;;;;;;;4.45;2.35;;;13.70;82.20;;;;;;4596467;19;20031;-72
2024/01/05 02:55:43;;;;;;;4.20;2.57;;;13.70;82.20;;;;;;4596651;19;19999;-72
2024/01/05 02:57:16;;;;;;;5.63;3.57;;;13.70;81.90;;;;;;4594876;19;20002;-72
2024/01/05 02:58:53;;;;;;;5.87;3.40;;;13.70;82.20;;;;;;4596359;19;20019;-72
2024/01/05 03:00:27;;;;;;;4.70;3.03;;;13.70;82.20;;;;;;4596278;19;20033;-72
2024/01/05 03:02:02;;;;;;;4.65;3.05;;;13.70;82.40;;;;;;4596546;19;20002;-72
2024/01/05 03:03:39;;;;;;;5.25;3.22;;;13.70;82.40;;;;;;4596309;19;20096;-72
2024/01/05 03:05:13;;;;;;;4.23;2.37;;;13.70;82.20;;;;;;4594863;19;20003;-72
2024/01/05 03:06:47;;;;;;;4.32;2.45;;;13.70;82.20;;;;;;4594971;19;20024;-72
2024/01/05 03:08:22;;;;;;;4.00;2.40;;;13.70;82.10;;;;;;4596290;19;19999;-72
2024/01/05 03:09:57;;;;;;;5.77;2.90;;;13.70;82.20;;;;;;4595077;19;20019;-72
2024/01/05 03:11:31;;;;;;;4.10;2.40;;;13.70;82.00;;;;;;4595798;19;20058;-72
2024/01/05 03:13:07;;;;;;;4.27;2.70;;;13.70;82.10;;;;;;4594671;19;20006;-72
2024/01/05 03:14:41;;;;;;;4.80;3.08;;;13.70;82.10;;;;;;4595965;19;19998;-72
2024/01/05 03:16:15;;;;;;;4.40;2.57;;;13.70;82.50;;;;;;4595757;19;20026;-72
2024/01/05 03:17:51;;;;;;;5.00;3.25;;;13.70;82.50;;;;;;4596324;19;20013;-72
2024/01/05 03:19:24;;;;;;;5.90;3.40;;;13.70;82.60;;;;;;4594569;19;20002;-72
2024/01/05 03:21:00;;;;;;;5.97;4.30;;;13.70;83.10;;;;;;4595865;19;20430;-72
2024/01/05 03:22:35;;;;;;;4.35;2.72;;;13.70;82.60;;;;;;4595193;19;20069;-72
2024/01/05 03:24:11;;;;;;;3.35;2.25;;;13.70;83.00;;;;;;4596163;19;20371;-72
2024/01/05 03:25:46;;;;;;;4.50;3.17;;;13.70;83.20;;;;;;4596083;19;20073;-72
2024/01/05 03:27:22;;;;;;;5.50;3.50;;;13.70;83.30;;;;;;4594677;19;20017;-72
2024/01/05 03:28:56;;;;;;;11.70;5.73;;;13.70;83.10;;;;;;4595679;19;20011;-72
2024/01/05 03:30:30;;;;;;;15.53;7.13;;;13.60;83.00;;;;;;4595699;19;20006;-72
2024/01/05 03:32:05;;;;;;;4.95;2.70;;;13.70;83.00;;;;;;4595664;19;20005;-72
2024/01/05 03:33:40;;;;;;;3.63;2.50;;;13.70;83.00;;;;;;4595911;19;20006;-72
2024/01/05 03:35:14;;;;;;;4.17;2.60;;;13.70;82.90;;;;;;4594459;19;20003;-72
2024/01/05 03:36:50;;;;;;;6.00;3.03;;;13.70;82.40;;;;;;4594450;19;20010;-72
2024/01/05 03:38:25;;;;;;;7.23;3.57;;;13.70;82.20;;;;;;4594446;19;20302;-72
2024/01/05 03:39:59;;;;;;;3.75;1.95;;;13.70;82.20;;;;;;4595403;19;20422;-72
2024/01/05 03:41:35;;;;;;;3.67;2.30;;;13.70;82.10;;;;;;4595507;19;20307;-72
2024/01/05 03:43:09;;;;;;;3.50;2.00;;;13.60;81.50;;;;;;4594216;19;20430;-72
2024/01/05 03:44:43;;;;;;;3.77;2.17;;;13.60;81.00;;;;;;4595301;19;20023;-72
2024/01/05 03:46:18;;;;;;;2.90;1.80;;;13.60;81.00;;;;;;4595089;19;19998;-72
2024/01/05 03:47:53;;;;;;;3.63;2.87;;;13.60;80.70;;;;;;4593975;19;20003;-72
2024/01/05 03:49:26;;;;;;;3.40;2.23;;;13.60;80.30;;;;;;4595226;19;20022;-72
2024/01/05 03:51:03;;;;;;;4.53;3.00;;;13.60;80.10;;;;;;4594145;19;19999;-72
2024/01/05 03:52:37;;;;;;;3.80;2.90;;;13.60;80.20;;;;;;4595176;19;20003;-72
2024/01/05 03:54:12;;;;;;;4.27;2.90;;;13.60;80.10;;;;;;4593821;19;20009;-72
2024/01/05 03:55:47;;;;;;;8.60;7.27;;;13.60;79.80;;;;;;4594925;19;20066;-72
2024/01/05 03:57:21;;;;;;;3.83;2.10;;;13.60;79.40;;;;;;4594011;19;20003;-72
2024/01/05 03:58:55;;;;;;;2.87;1.40;;;13.60;79.20;;;;;;4595101;19;20014;-72
2024/01/05 04:00:30;;;;;;;4.00;2.03;;;13.60;79.30;;;;;;4595186;19;20014;-72
2024/01/05 04:02:04;;;;;;;4.50;2.57;;;13.50;79.00;;;;;;4594963;19;20035;-72
2024/01/05 04:03:38;;;;;;;8.30;5.40;;;13.50;79.00;;;;;;4595014;19;19999;-72
2024/01/05 04:05:13;;;;;;;10.27;8.10;;;13.50;78.60;;;;;;4595015;19;20334;-72
2024/01/05 04:06:50;;;;;;;12.63;9.50;;;13.50;79.00;;;;;;4594438;19;20022;-72
2024/01/05 04:08:28;;;;;;;5.77;4.10;;;13.50;79.30;;;;;;4594976;19;20003;-72
2024/01/05 04:10:03;;;;;;;3.63;2.60;;;13.50;79.50;;;;;;4594921;19;20010;-72
2024/01/05 04:11:38;;;;;;;3.38;2.17;;;13.60;79.30;;;;;;4594805;19;20008;-72
2024/01/05 04:13:12;;;;;;;5.57;2.63;;;13.60;79.00;;;;;;4595090;19;20003;-72
2024/01/05 04:14:47;;;;;;;4.87;2.83;;;13.60;79.10;;;;;;4595124;19;20302;-72
2024/01/05 04:16:22;;;;;;;5.97;3.20;;;13.60;79.30;;;;;;4594120;19;20022;-72
2024/01/05 04:17:57;;;;;;;4.20;2.83;;;13.60;79.20;;;;;;4595065;19;20299;-72
2024/01/05 04:19:33;;;;;;;5.87;3.07;;;13.60;78.90;;;;;;4594758;19;20028;-72
2024/01/05 04:21:07;;;;;;;11.07;7.13;;;13.60;78.80;;;;;;4594642;19;20018;-72
2024/01/05 04:22:42;;;;;;;9.00;5.67;;;13.60;78.70;;;;;;4594239;19;20009;-72
2024/01/05 04:24:18;;;;;;;10.47;6.43;;;13.60;79.50;;;;;;4594638;19;20006;-72
2024/01/05 04:25:52;;;;;;;6.03;3.50;;;13.60;78.80;;;;;;4594548;19;20363;-72
2024/01/05 04:27:27;;;;;;;6.47;3.10;;;13.60;78.50;;;;;;4593191;19;20002;-72
2024/01/05 04:29:03;;;;;;;10.30;6.13;;;13.60;78.50;;;;;;4593223;19;20449;-72
2024/01/05 04:30:38;;;;;;;11.63;6.43;;;13.60;79.20;;;;;;4594389;19;20002;-72
2024/01/05 04:32:12;;;;;;;20.43;9.27;;;13.60;79.40;;;;;;4594384;19;20426;-72
2024/01/05 04:33:47;;;;;;;85.03;39.17;;;13.60;79.40;;;;;;4594448;19;20010;-72
2024/01/05 04:35:21;;;;;;;59.87;28.70;;;13.60;79.70;;;;;;4594599;19;20306;-72
2024/01/05 04:36:55;;;;;;;24.37;12.57;;;13.60;80.00;;;;;;4593753;19;20021;-72
2024/01/05 04:38:31;;;;;;;10.47;5.83;;;13.60;80.10;;;;;;4594522;19;20422;-72
2024/01/05 04:40:06;;;;;;;9.97;5.57;;;13.60;80.00;;;;;;4593664;19;20031;-72
2024/01/05 04:41:40;;;;;;;20.40;12.17;;;13.60;80.10;;;;;;4594171;19;20446;-72
2024/01/05 04:43:16;;;;;;;19.57;10.53;;;13.60;80.60;;;;;;4593455;19;20010;-72
2024/01/05 04:44:50;;;;;;;41.40;23.73;;;13.60;81.00;;;;;;4594194;19;20062;-72
2024/01/05 04:46:24;;;;;;;29.00;16.67;;;13.70;81.00;;;;;;4592443;19;20049;-72
2024/01/05 04:47:59;;;;;;;28.30;16.93;;;13.70;81.10;;;;;;4593747;19;20031;-71
2024/01/05 04:49:33;;;;;;;22.33;13.83;;;13.80;81.20;;;;;;4594094;19;20006;-72
2024/01/05 04:51:07;;;;;;;18.27;10.30;;;14.00;81.50;;;;;;4594292;19;20003;-71
2024/01/05 04:52:43;;;;;;;22.63;15.03;;;14.10;81.10;;;;;;4594115;19;20018;-72
2024/01/05 04:54:17;;;;;;;13.90;7.40;;;14.30;81.20;;;;;;4594246;19;20002;-72
2024/01/05 04:55:51;;;;;;;12.10;5.72;;;14.40;81.00;;;;;;4594221;19;20002;-72
2024/01/05 04:57:27;;;;;;;18.07;10.40;;;14.50;80.70;;;;;;4592636;19;20021;-72
2024/01/05 04:59:02;;;;;;;16.30;9.30;;;14.60;80.60;;;;;;4593780;19;20042;-73
2024/01/05 05:00:36;;;;;;;17.65;10.38;;;14.60;80.70;;;;;;4594081;19;20002;-72
2024/01/05 05:02:11;;;;;;;22.40;13.73;;;14.70;80.50;;;;;;4593797;19;20345;-72
2024/01/05 05:03:47;;;;;;;15.63;9.63;;;14.70;80.40;;;;;;4591173;19;19998;-72
2024/01/05 05:05:22;;;;;;;31.33;16.98;;;14.80;80.10;;;;;;4593391;19;19999;-72
2024/01/05 05:06:58;;;;;;;72.32;32.97;;;14.80;80.00;;;;;;4592958;19;20014;-73
2024/01/05 05:08:32;;;;;;;59.20;26.20;;;14.80;79.80;;;;;;4592371;19;20003;-73
2024/01/05 05:10:07;;;;;;;40.28;18.63;;;14.80;79.90;;;;;;4593576;19;20014;-73
2024/01/05 05:11:43;;;;;;;52.55;25.55;;;14.80;79.80;;;;;;4594063;19;20425;-72
2024/01/05 05:13:16;;;;;;;51.60;25.25;;;14.90;79.90;;;;;;4593562;19;19999;-73
2024/01/05 05:14:53;;;;;;;29.15;15.77;;;14.90;79.90;;;;;;4593551;19;20020;-73
2024/01/05 05:16:28;;;;;;;16.92;8.73;;;15.00;80.60;;;;;;4592817;19;20046;-73
2024/01/05 05:18:02;;;;;;;15.20;5.77;;;15.00;80.00;;;;;;4593858;19;20006;-73
2024/01/05 05:19:37;;;;;;;11.88;5.90;;;15.00;89.10;;;;;;4593738;19;20019;-73
2024/01/05 05:21:12;;;;;;;9.10;5.18;;;15.00;79.70;;;;;;4593689;19;20007;-72
2024/01/05 05:22:46;;;;;;;13.15;6.38;;;15.00;80.40;;;;;;4592788;19;20005;-72
2024/01/05 05:24:21;;;;;;;9.60;5.93;;;14.90;80.20;;;;;;4593616;19;20062;-71
2024/01/05 05:25:57;;;;;;;11.95;6.93;;;14.80;80.10;;;;;;4593348;19;20006;-72
2024/01/05 05:27:31;;;;;;;16.90;11.25;;;14.80;80.10;;;;;;4592085;19;20418;-72
2024/01/05 05:29:05;;;;;;;22.52;14.70;;;14.80;80.00;;;;;;4593130;19;20011;-72
2024/01/05 05:30:40;;;;;;;45.83;24.75;;;14.70;79.80;;;;;;4593310;19;20013;-72
2024/01/05 05:32:14;;;;;;;37.15;20.58;;;14.70;79.80;;;;;;4593166;19;20307;-72
2024/01/05 05:33:50;;;;;;;41.03;21.38;;;14.70;80.20;;;;;;4591744;19;20006;-72
2024/01/05 05:35:26;;;;;;;26.10;14.68;;;14.70;80.10;;;;;;4593143;19;20023;-72
2024/01/05 05:36:59;;;;;;;16.33;9.68;;;14.60;80.20;;;;;;4590891;19;20017;-72
2024/01/05 05:38:33;;;;;;;18.85;10.50;;;14.60;80.30;;;;;;4592595;19;20019;-72
2024/01/05 05:40:09;;;;;;;14.80;9.30;;;14.60;80.10;;;;;;4593306;19;20003;-72
2024/01/05 05:41:43;;;;;;;39.47;24.95;;;14.60;80.00;;;;;;4593014;19;20009;-72
2024/01/05 05:43:18;;;;;;;286.25;169.65;;;14.60;80.10;;;;;;4591868;19;20306;-72
2024/01/05 05:44:54;;;;;;;387.02;232.02;;;14.50;80.20;;;;;;4593031;19;20026;-72
2024/01/05 05:46:29;;;;;;;171.43;99.28;;;14.50;80.30;;;;;;4592497;19;20089;-72
2024/01/05 05:48:05;;;;;;;111.68;64.43;;;14.50;81.10;;;;;;4591460;19;20023;-72
2024/01/05 05:49:40;;;;;;;22.45;14.65;;;14.50;80.70;;;;;;4592873;19;20006;-72
2024/01/05 05:51:14;;;;;;;132.48;74.80;;;14.40;80.80;;;;;;4592537;19;20010;-72
2024/01/05 05:52:51;;;;;;;143.25;88.13;;;14.40;80.60;;;;;;4592911;19;20302;-72
2024/01/05 05:54:26;;;;;;;138.55;84.25;;;14.40;80.60;;;;;;4592692;19;20003;-72
2024/01/05 05:56:01;;;;;;;174.00;105.13;;;14.40;80.80;;;;;;4592547;19;20009;-72
2024/01/05 05:57:35;;;;;;;66.43;43.93;;;14.40;80.90;;;;;;4591442;19;20422;-72
2024/01/05 05:59:11;;;;;;;42.60;31.95;;;14.30;80.80;;;;;;4592961;19;20007;-72
2024/01/05 06:00:47;;;;;;;25.97;19.83;;;14.40;80.70;;;;;;4592816;19;20013;-72
2024/01/05 06:02:21;;;;;;;39.22;33.63;;;14.30;80.80;;;;;;4592638;19;20080;-72
2024/01/05 06:03:57;;;;;;;36.73;31.97;;;14.30;80.90;;;;;;4592485;19;20010;-72
2024/01/05 06:05:32;;;;;;;30.05;26.63;;;14.30;80.80;;;;;;4592369;19;20325;-72
2024/01/05 06:07:08;;;;;;;22.07;18.40;;;14.30;80.90;;;;;;4591550;19;20014;-72
2024/01/05 06:08:44;;;;;;;16.02;12.00;;;14.30;81.50;;;;;;4592775;19;20006;-72
2024/01/05 06:10:18;;;;;;;28.52;20.02;;;14.30;80.90;;;;;;4591347;19;20002;-72
2024/01/05 06:11:52;;;;;;;52.88;32.03;;;14.30;81.00;;;;;;4592348;19;19999;-72
2024/01/05 06:13:27;;;;;;;68.60;39.88;;;14.20;81.10;;;;;;4591367;19;20011;-72
2024/01/05 06:15:02;;;;;;;40.83;25.45;;;14.20;81.20;;;;;;4589899;19;20006;-72
2024/01/05 06:16:36;;;;;;;20.33;13.20;;;14.30;81.40;;;;;;4590527;19;20015;-72
2024/01/05 06:18:11;;;;;;;22.45;14.55;;;14.40;81.20;;;;;;4591006;19;20003;-72
2024/01/05 06:19:47;;;;;;;36.17;24.02;;;14.50;81.10;;;;;;4591842;19;20003;-72
2024/01/05 06:21:22;;;;;;;36.17;23.55;;;14.60;81.00;;;;;;4592176;19;20070;-71
2024/01/05 06:22:57;;;;;;;51.92;32.13;;;14.70;80.60;;;;;;4591610;19;20007;-72
2024/01/05 06:24:32;;;;;;;60.70;37.95;;;14.90;80.40;;;;;;4592383;19;20318;-72
2024/01/05 06:26:06;;;;;;;48.53;31.52;;;15.10;80.20;;;;;;4592092;19;20009;-72
2024/01/05 06:27:42;;;;;;;81.43;48.67;;;15.20;79.90;;;;;;4592602;19;20011;-72
2024/01/05 06:29:15;;;;;;;124.50;61.50;;;15.30;79.60;;;;;;4591839;19;20039;-72
2024/01/05 06:30:50;;;;;;;118.10;69.68;;;15.30;79.30;;;;;;4591980;19;20032;-71
2024/01/05 06:32:25;;;;;;;76.72;47.75;;;15.30;79.40;;;;;;4592358;19;20461;-72
2024/01/05 06:34:00;;;;;;;33.85;22.25;;;15.40;79.60;;;;;;4592335;19;20062;-72
2024/01/05 06:35:34;;;;;;;43.55;26.85;;;15.40;79.40;;;;;;4592177;19;20003;-72
2024/01/05 06:37:11;;;;;;;48.17;29.67;;;15.50;79.10;;;;;;4591027;19;20061;-72
2024/01/05 06:38:46;;;;;;;74.68;42.33;;;15.60;79.30;;;;;;4590810;19;20002;-72
2024/01/05 06:40:20;;;;;;;82.95;47.97;;;15.70;79.30;;;;;;4591594;19;20022;-72
2024/01/05 06:41:56;;;;;;;88.20;51.60;;;15.80;79.20;;;;;;4591953;19;20023;-72
2024/01/05 06:43:29;;;;;;;66.50;39.97;;;15.80;79.00;;;;;;4591087;19;19999;-72
2024/01/05 06:45:06;;;;;;;59.15;36.13;;;15.80;78.90;;;;;;4592005;19;20090;-72
2024/01/05 06:46:42;;;;;;;44.03;30.73;;;15.80;79.00;;;;;;4591318;19;20086;-72
2024/01/05 06:48:15;;;;;;;50.63;35.05;;;15.80;78.90;;;;;;4591980;19;20006;-72
2024/01/05 06:49:50;;;;;;;49.00;33.72;;;15.80;78.90;;;;;;4592038;19;20291;-72
2024/01/05 06:51:29;;;;;;;69.88;45.25;;;15.70;79.20;;;;;;4591657;19;20007;-72
2024/01/05 06:53:06;;;;;;;60.75;39.67;;;15.70;79.10;;;;;;4591663;19;20003;-72
2024/01/05 06:54:41;;;;;;;58.45;38.05;;;15.70;79.20;;;;;;4590293;19;20014;-72
2024/01/05 06:56:18;;;;;;;70.85;44.55;;;15.60;79.30;;;;;;4590155;19;20006;-72
2024/01/05 06:57:52;;;;;;;89.82;49.40;;;15.50;79.50;;;;;;4591621;19;20003;-72
2024/01/05 06:59:30;;;;;;;85.65;46.40;;;15.50;79.60;;;;;;4591596;19;20078;-72
2024/01/05 07:01:06;;;;;;;84.13;48.20;;;15.50;79.80;;;;;;4590213;19;20013;-72
2024/01/05 07:02:41;;;;;;;77.03;46.80;;;15.40;80.00;;;;;;4590661;19;20035;-72
2024/01/05 07:04:15;;;;;;;73.15;45.03;;;15.40;79.90;;;;;;4591333;19;20003;-72
2024/01/05 07:05:50;;;;;;;61.00;38.65;;;15.30;79.80;;;;;;4591388;19;20013;-72
2024/01/05 07:07:24;;;;;;;72.13;42.15;;;15.30;79.90;;;;;;4590117;19;20335;-72
2024/01/05 07:08:58;;;;;;;81.95;49.03;;;15.20;79.90;;;;;;4591621;19;20003;-72
2024/01/05 07:10:33;;;;;;;66.82;42.67;;;15.20;80.10;;;;;;4591657;19;20422;-72
2024/01/05 07:12:07;;;;;;;72.60;46.22;;;15.10;80.10;;;;;;4591372;19;20414;-72
2024/01/05 07:13:42;;;;;;;63.08;39.70;;;15.10;80.00;;;;;;4591110;19;20027;-71
2024/01/05 07:15:18;;;;;;;58.67;35.92;;;15.00;80.00;;;;;;4589970;19;20007;-72
2024/01/05 07:16:53;;;;;;;46.15;30.05;;;15.00;80.30;;;;;;4589630;19;20344;-76
2024/01/05 07:18:28;;;;;;;34.97;24.05;;;15.00;80.60;;;;;;4591036;19;20030;-71
2024/01/05 07:20:04;;;;;;;35.50;24.38;;;14.90;80.70;;;;;;4591428;19;20007;-73
2024/01/05 07:21:41;;;;;;;37.67;26.27;;;14.90;80.90;;;;;;4591247;19;20422;-74
2024/01/05 07:23:16;;;;;;;41.30;28.65;;;14.90;81.00;;;;;;4590365;19;20322;-73
2024/01/05 07:24:52;;;;;;;41.42;28.73;;;14.90;81.00;;;;;;4591026;19;20007;-74
2024/01/05 07:26:27;;;;;;;55.70;38.15;;;14.80;80.90;;;;;;4591799;19;20310;-73
2024/01/05 07:28:02;;;;;;;43.78;29.88;;;14.80;80.90;;;;;;4595572;19;20449;-73
2024/01/05 07:29:38;;;;;;;44.67;31.08;;;14.80;81.00;;;;;;4594283;19;20070;-73
2024/01/05 07:31:12;;;;;;;56.80;40.88;;;14.70;81.10;;;;;;4595412;19;20441;-73
2024/01/05 07:32:46;;;;;;;51.08;37.85;;;14.70;81.20;;;;;;4594054;19;20517;-74
2024/01/05 07:34:21;;;;;;;53.63;38.15;;;14.70;81.30;;;;;;4594400;19;20422;-73
2024/01/05 07:35:55;;;;;;;47.35;34.42;;;14.70;81.50;;;;;;4595075;19;20466;-71
2024/01/05 07:37:30;;;;;;;38.97;29.10;;;14.60;81.60;;;;;;4593694;19;20003;-72
2024/01/05 07:39:05;;;;;;;43.42;32.38;;;14.70;81.80;;;;;;4595675;19;20291;-73
2024/01/05 07:40:40;;;;;;;53.13;39.60;;;14.60;81.80;;;;;;4595559;19;20005;-73
2024/01/05 07:42:14;;;;;;;54.83;40.17;;;14.60;81.90;;;;;;4595521;19;20306;-71
2024/01/05 07:43:49;;;;;;;53.08;36.88;;;14.60;81.90;;;;;;4595555;19;20022;-71
2024/01/05 07:45:23;;;;;;;48.22;33.03;;;14.50;81.90;;;;;;4595465;19;20005;-70
2024/01/05 07:46:58;;;;;;;42.58;26.45;;;14.50;82.00;;;;;;4594202;19;19998;-69
2024/01/05 07:48:35;;;;;;;37.05;24.75;;;14.50;81.90;;;;;;4595420;19;20422;-69
2024/01/05 07:50:10;;;;;;;31.73;22.48;;;14.50;81.90;;;;;;4595081;19;20090;-70
2024/01/05 07:51:44;;;;;;;36.78;24.48;;;14.50;82.00;;;;;;4595334;19;19998;-70
2024/01/05 07:53:19;;;;;;;32.10;21.77;;;14.40;82.00;;;;;;4595429;19;20423;-74
2024/01/05 07:54:53;;;;;;;30.00;20.02;;;14.40;82.10;;;;;;4594946;19;20006;-72
2024/01/05 07:56:27;;;;;;;28.45;19.90;;;14.40;82.20;;;;;;4594871;19;20015;-75
2024/01/05 07:58:02;;;;;;;24.95;18.05;;;14.40;82.20;;;;;;4594143;19;20013;-73
2024/01/05 07:59:36;;;;;;;22.25;15.55;;;14.40;82.30;;;;;;4595175;19;20006;-73
2024/01/05 08:01:20;;;;;;;24.30;15.87;;;14.40;82.40;;;;;;4593484;19;20017;-73
2024/01/05 08:02:56;;;;;;;21.13;14.82;;;14.40;82.60;;;;;;4593526;19;20025;-74
2024/01/05 08:04:30;;;;;;;16.43;10.57;;;14.40;82.90;;;;;;4594564;19;20482;-73
2024/01/05 08:06:05;;;;;;;103.03;60.92;;;14.30;82.90;;;;;;4593987;19;20006;-73
2024/01/05 08:07:43;;;;;;;122.00;68.88;;;14.30;82.70;;;;;;4594380;19;20306;-74
2024/01/05 08:09:18;;;;;;;35.97;22.07;;;14.30;82.70;;;;;;4594789;19;20007;-71
2024/01/05 08:10:52;;;;;;;23.02;14.07;;;14.30;82.70;;;;;;4593374;19;20434;-71
2024/01/05 08:12:27;;;;;;;47.55;26.00;;;14.30;82.90;;;;;;4594329;19;19999;-70
2024/01/05 08:14:02;;;;;;;42.03;22.58;;;14.20;82.80;;;;;;4594782;19;20010;-70
2024/01/05 08:15:36;;;;;;;40.07;22.03;;;14.30;82.60;;;;;;4594644;19;20019;-70
2024/01/05 08:17:11;;;;;;;19.05;12.95;;;14.20;82.40;;;;;;4593579;19;20014;-70
2024/01/05 08:18:46;;;;;;;22.60;14.23;;;14.20;82.40;;;;;;4594901;19;20002;-69
2024/01/05 08:20:21;;;;;;;17.00;10.40;;;14.20;82.20;;;;;;4594846;19;20007;-70
2024/01/05 08:21:56;;;;;;;21.52;14.00;;;14.20;82.20;;;;;;4593090;19;20014;-70
2024/01/05 08:23:34;;;;;;;33.60;23.85;;;14.20;82.50;;;;;;4592727;19;20331;-70